createdAt,value
2022-12-24T00:01:36.374Z,99281.28
2022-12-24T00:04:04.961Z,99282.13
2022-12-24T00:06:33.307Z,99292.59
2022-12-24T00:09:01.790Z,99291.75
2022-12-24T00:11:30.168Z,99302.22
2022-12-24T00:13:58.594Z,99298.72
2022-12-24T00:16:28.711Z,99298.72
2022-12-24T00:18:57.092Z,99299.59
2022-12-24T00:21:25.458Z,99291.75
2022-12-24T00:23:53.838Z,99301.34
2022-12-24T00:26:22.477Z,99300.47
2022-12-24T00:28:51.170Z,99312.69
2022-12-24T00:31:20.394Z,99309.22
2022-12-24T00:33:50.224Z,99301.38
2022-12-24T00:36:20.130Z,99307.47
2022-12-24T00:38:48.843Z,99322.31
2022-12-24T00:41:26.531Z,99317.94
2022-12-24T00:43:56.377Z,99323.19
2022-12-24T00:46:25.408Z,99313.56
2022-12-24T00:48:55.939Z,99312.66
2022-12-24T00:51:25.401Z,99324.81
2022-12-24T00:53:53.913Z,99330.94
2022-12-24T00:56:22.829Z,99344.88
2022-12-24T00:58:51.613Z,99342.25
2022-12-24T01:01:20.421Z,99331.78
2022-12-24T01:03:49.185Z,99345.69
2022-12-24T01:06:19.954Z,99341.28
2022-12-24T01:08:51.646Z,99342.16
2022-12-24T01:11:20.114Z,99353.53
2022-12-24T01:13:48.508Z,99350.94
2022-12-24T01:16:19.462Z,99364.84
2022-12-24T01:18:48.091Z,99357.88
2022-12-24T01:21:18.265Z,99366.56
2022-12-24T01:23:46.700Z,99380.50
2022-12-24T01:26:15.053Z,99373.53
2022-12-24T01:28:43.776Z,99393.56
2022-12-24T01:31:13.885Z,99390.06
2022-12-24T01:33:42.693Z,99396.19
2022-12-24T01:36:11.585Z,99396.19
2022-12-24T01:38:41.623Z,99396.19
2022-12-24T01:41:33.267Z,99396.19
2022-12-24T01:44:26.165Z,99394.41
2022-12-24T01:47:03.441Z,99397.88
2022-12-24T01:49:32.130Z,99396.13
2022-12-24T01:52:06.045Z,99397.88
2022-12-24T01:54:40.461Z,99402.25
2022-12-24T01:57:11.863Z,99404.81
2022-12-24T01:59:44.867Z,99404.81
2022-12-24T02:02:14.508Z,99417.91
2022-12-24T02:04:49.657Z,99413.53
2022-12-24T02:07:18.169Z,99419.63
2022-12-24T02:09:50.623Z,99432.69
2022-12-24T02:12:18.913Z,99437.94
2022-12-24T02:14:47.267Z,99439.66
2022-12-24T02:17:22.047Z,99433.53
2022-12-24T02:20:17.923Z,99443.13
2022-12-24T02:23:04.633Z,99443.94
2022-12-24T02:25:53.532Z,99459.66
2022-12-24T02:28:43.605Z,99463.13
2022-12-24T02:31:17.582Z,99452.66
2022-12-24T02:33:51.647Z,99464.84
2022-12-24T02:36:27.916Z,99461.34
2022-12-24T02:39:02.810Z,99466.53
2022-12-24T02:41:55.094Z,99461.25
2022-12-24T02:44:26.229Z,99474.34
2022-12-24T02:46:57.800Z,99465.63
2022-12-24T02:49:26.362Z,99471.69
2022-12-24T02:51:54.700Z,99477.78
2022-12-24T02:54:23.626Z,99471.63
2022-12-24T02:57:07.380Z,99478.59
2022-12-24T02:59:52.632Z,99471.59
2022-12-24T03:02:30.928Z,99475.88
2022-12-24T03:05:13.486Z,99475.81
2022-12-24T03:07:52.454Z,99480.16
2022-12-24T03:10:27.903Z,99481.00
2022-12-24T03:13:03.218Z,99477.47
2022-12-24T03:15:33.487Z,99487.03
2022-12-24T03:18:06.646Z,99483.50
2022-12-24T03:20:39.559Z,99486.06
2022-12-24T03:23:08.239Z,99489.50
2022-12-24T03:25:42.051Z,99484.28
2022-12-24T03:28:13.067Z,99483.41
2022-12-24T03:30:42.648Z,99493.00
2022-12-24T03:33:16.214Z,99484.28
2022-12-24T03:35:44.640Z,99494.75
2022-12-24T03:38:12.947Z,99493.03
2022-12-24T03:40:41.281Z,99504.38
2022-12-24T03:43:09.602Z,99502.66
2022-12-24T03:45:38.260Z,99493.97
2022-12-24T03:48:06.942Z,99500.06
2022-12-24T03:50:36.586Z,99512.31
2022-12-24T03:53:04.888Z,99502.72
2022-12-24T03:55:33.258Z,99504.50
2022-12-24T03:58:01.597Z,99500.16
2022-12-24T04:00:29.899Z,99509.75
2022-12-24T04:02:58.284Z,99501.91
2022-12-24T04:05:26.695Z,99500.19
2022-12-24T04:07:56.401Z,99516.75
2022-12-24T04:10:24.780Z,99518.53
2022-12-24T04:12:53.101Z,99525.53
2022-12-24T04:15:21.473Z,99522.91
2022-12-24T04:17:49.788Z,99522.06
2022-12-24T04:20:18.274Z,99515.09
2022-12-24T04:22:46.622Z,99529.97
2022-12-24T04:25:16.383Z,99523.81
2022-12-24T04:27:44.680Z,99529.13
2022-12-24T04:30:13.369Z,99531.75
2022-12-24T04:32:41.668Z,99542.22
2022-12-24T04:35:10.739Z,99538.72
2022-12-24T04:37:39.040Z,99557.91
2022-12-24T04:40:08.569Z,99537.00
2022-12-24T04:42:38.218Z,99537.91
2022-12-24T04:45:07.377Z,99548.38
2022-12-24T04:47:35.676Z,99544.91
2022-12-24T04:50:04.259Z,99547.53
2022-12-24T04:52:32.549Z,99551.03
2022-12-24T04:55:00.959Z,99559.69
2022-12-24T04:57:29.291Z,99563.19
2022-12-24T04:59:58.972Z,99559.66
2022-12-24T05:02:27.415Z,99566.59
2022-12-24T05:04:55.877Z,99550.81
2022-12-24T05:07:24.242Z,99558.63
2022-12-24T05:09:52.548Z,99564.72
2022-12-24T05:12:20.867Z,99568.19
2022-12-24T05:14:49.239Z,99569.88
2022-12-24T05:17:18.940Z,99562.88
2022-12-24T05:19:47.286Z,99568.09
2022-12-24T05:22:32.896Z,99570.66
2022-12-24T05:25:18.483Z,99562.81
2022-12-24T05:27:51.081Z,99566.25
2022-12-24T05:30:20.145Z,99573.22
2022-12-24T05:32:49.857Z,99567.13
2022-12-24T05:35:18.212Z,99584.56
2022-12-24T05:37:46.616Z,99580.19
2022-12-24T05:40:15.141Z,99590.66
2022-12-24T05:42:43.406Z,99596.75
2022-12-24T05:45:11.703Z,99581.94
2022-12-24T05:47:43.437Z,99585.44
2022-12-24T05:50:13.927Z,99588.03
2022-12-24T05:52:42.287Z,99595.00
2022-12-24T05:55:11.395Z,99581.94
2022-12-24T05:57:40.904Z,99585.44
2022-12-24T06:00:10.542Z,99598.50
2022-12-24T06:02:40.658Z,99601.13
2022-12-24T06:05:09.762Z,99597.63
2022-12-24T06:07:42.363Z,99596.75
2022-12-24T06:10:11.106Z,99604.66
2022-12-24T06:12:39.371Z,99602.03
2022-12-24T06:15:08.938Z,99603.78
2022-12-24T06:17:37.529Z,99609.00
2022-12-24T06:20:06.968Z,99611.63
2022-12-24T06:22:35.283Z,99620.34
2022-12-24T06:25:05.511Z,99623.78
2022-12-24T06:27:34.033Z,99621.16
2022-12-24T06:30:02.425Z,99622.03
2022-12-24T06:32:30.787Z,99627.25
2022-12-24T06:34:59.064Z,99629.00
2022-12-24T06:37:27.349Z,99628.09
2022-12-24T06:39:55.641Z,99625.47
2022-12-24T06:42:25.443Z,99630.72
2022-12-24T06:44:53.748Z,99635.94
2022-12-24T06:47:22.303Z,99637.69
2022-12-24T06:49:50.611Z,99650.75
2022-12-24T06:52:18.979Z,99649.00
2022-12-24T06:54:47.295Z,99643.78
2022-12-24T06:57:15.675Z,99653.41
2022-12-24T06:59:45.339Z,99666.50
2022-12-24T07:02:13.796Z,99669.09
2022-12-24T07:04:42.234Z,99670.84
2022-12-24T07:07:10.595Z,99659.56
2022-12-24T07:09:38.879Z,99666.56
2022-12-24T07:12:07.364Z,99670.91
2022-12-24T07:14:35.900Z,99675.31
2022-12-24T07:17:05.679Z,99670.09
2022-12-24T07:19:34.295Z,99667.47
2022-12-24T07:22:03.043Z,99671.00
2022-12-24T07:24:31.437Z,99677.94
2022-12-24T07:26:59.734Z,99687.56
2022-12-24T07:29:28.103Z,99689.31
2022-12-24T07:31:56.539Z,99690.19
2022-12-24T07:34:26.243Z,99689.31
2022-12-24T07:36:54.563Z,99694.53
2022-12-24T07:39:22.871Z,99693.69
2022-12-24T07:41:51.300Z,99695.41
2022-12-24T07:44:21.122Z,99700.59
2022-12-24T07:46:49.463Z,99701.41
2022-12-24T07:49:17.932Z,99704.03
2022-12-24T07:51:47.574Z,99707.47
2022-12-24T07:54:15.914Z,99713.50
2022-12-24T07:56:44.290Z,99720.47
2022-12-24T07:59:13.615Z,99730.03
2022-12-24T08:01:42.165Z,99738.72
2022-12-24T08:04:10.906Z,99734.31
2022-12-24T08:06:39.586Z,99735.19
2022-12-24T08:09:09.292Z,99729.91
2022-12-24T08:11:37.689Z,99748.16
2022-12-24T08:14:06.057Z,99742.03
2022-12-24T08:16:34.449Z,99749.84
2022-12-24T08:19:02.760Z,99757.69
2022-12-24T08:21:31.072Z,99750.66
2022-12-24T08:23:59.404Z,99765.50
2022-12-24T08:26:29.062Z,99762.84
2022-12-24T08:28:57.331Z,99768.94
2022-12-24T08:31:25.700Z,99771.56
2022-12-24T08:33:54.063Z,99775.97
2022-12-24T08:36:22.475Z,99778.56
2022-12-24T08:38:50.782Z,99775.06
2022-12-24T08:41:19.057Z,99777.66
2022-12-24T08:43:48.783Z,99782.91
2022-12-24T08:46:17.253Z,99777.72
2022-12-24T08:48:45.562Z,99789.06
2022-12-24T08:51:14.038Z,99781.22
2022-12-24T08:53:42.409Z,99780.34
2022-12-24T08:56:11.315Z,99783.00
2022-12-24T08:58:40.058Z,99789.09
2022-12-24T09:01:14.952Z,99787.41
2022-12-24T09:03:43.887Z,99790.91
2022-12-24T09:06:12.594Z,99797.06
2022-12-24T09:08:41.224Z,99795.34
2022-12-24T09:11:12.022Z,99804.16
2022-12-24T09:13:40.512Z,99805.09
2022-12-24T09:16:09.926Z,99809.47
2022-12-24T09:18:40.206Z,99817.38
2022-12-24T09:21:14.296Z,99813.91
2022-12-24T09:23:44.647Z,99825.31
2022-12-24T09:26:15.778Z,99828.00
2022-12-24T09:28:44.200Z,99836.75
2022-12-24T09:31:14.063Z,99838.53
2022-12-24T09:33:45.491Z,99848.16
2022-12-24T09:36:13.852Z,99853.47
2022-12-24T09:38:42.458Z,99850.94
2022-12-24T09:41:16.481Z,99854.47
2022-12-24T09:43:48.722Z,99870.19
2022-12-24T09:46:24.057Z,99866.75
2022-12-24T09:48:56.655Z,99880.75
2022-12-24T09:51:30.496Z,99873.84
2022-12-24T09:54:04.505Z,99880.88
2022-12-24T09:56:41.834Z,99880.94
2022-12-24T09:59:15.320Z,99884.47
2022-12-24T10:01:44.051Z,99878.44
2022-12-24T10:04:15.532Z,99897.63
2022-12-24T10:06:53.013Z,99884.59
2022-12-24T10:09:29.100Z,99882.91
2022-12-24T10:12:05.223Z,99888.22
2022-12-24T10:14:50.537Z,99890.88
2022-12-24T10:17:37.169Z,99890.06
2022-12-24T10:20:26.461Z,99892.75
2022-12-24T10:23:03.840Z,99893.66
2022-12-24T10:25:38.570Z,99905.00
2022-12-24T10:28:16.279Z,99905.88
2022-12-24T10:30:52.343Z,99906.75
2022-12-24T10:33:29.121Z,99907.59
2022-12-24T10:36:03.135Z,99903.22
2022-12-24T10:38:34.588Z,99905.88
2022-12-24T10:41:05.129Z,99896.38
2022-12-24T10:43:37.877Z,99900.88
2022-12-24T10:46:10.589Z,99908.91
2022-12-24T10:48:50.863Z,99900.19
2022-12-24T10:51:29.729Z,99904.59
2022-12-24T10:54:10.946Z,99895.81
2022-12-24T10:56:46.888Z,99895.81
2022-12-24T10:59:31.429Z,99895.81
2022-12-24T11:02:02.164Z,99887.13
2022-12-24T11:04:34.297Z,99891.50
2022-12-24T11:07:07.535Z,99894.13
2022-12-24T11:09:41.989Z,99891.50
2022-12-24T11:12:24.672Z,99884.56
2022-12-24T11:15:04.769Z,99892.47
2022-12-24T11:17:35.853Z,99899.50
2022-12-24T11:20:08.184Z,99887.34
2022-12-24T11:22:44.138Z,99883.88
2022-12-24T11:25:23.850Z,99892.66
2022-12-24T11:27:54.440Z,99878.75
2022-12-24T11:30:34.111Z,99882.38
2022-12-24T11:33:24.022Z,99878.13
2022-12-24T11:35:58.346Z,99887.84
2022-12-24T11:38:31.246Z,99891.44
2022-12-24T11:41:04.088Z,99889.81
2022-12-24T11:43:49.178Z,99892.50
2022-12-24T11:46:22.609Z,99886.44
2022-12-24T11:49:08.679Z,99893.44
2022-12-24T11:51:37.620Z,99896.03
2022-12-24T11:54:17.075Z,99901.34
2022-12-24T11:56:49.211Z,99893.47
2022-12-24T11:59:25.198Z,99897.84
2022-12-24T12:01:59.696Z,99898.72
2022-12-24T12:04:31.990Z,99897.00
2022-12-24T12:07:11.216Z,99890.94
2022-12-24T12:09:51.175Z,99896.19
2022-12-24T12:12:25.596Z,99892.75
2022-12-24T12:14:57.202Z,99895.47
2022-12-24T12:17:33.729Z,99897.25
2022-12-24T12:20:09.022Z,99905.16
2022-12-24T12:22:47.304Z,99905.19
2022-12-24T12:25:24.063Z,99905.25
2022-12-24T12:27:56.799Z,99902.66
2022-12-24T12:30:26.584Z,99900.13
2022-12-24T12:33:01.280Z,99897.53
2022-12-24T12:35:33.872Z,99902.84
2022-12-24T12:38:05.930Z,99911.66
2022-12-24T12:40:52.268Z,99914.34
2022-12-24T12:43:36.711Z,99919.63
2022-12-24T12:46:13.894Z,99922.25
2022-12-24T12:49:03.054Z,99918.75
2022-12-24T12:51:43.314Z,99923.06
2022-12-24T12:54:29.984Z,99914.25
2022-12-24T12:57:05.389Z,99938.72
2022-12-24T12:59:39.549Z,99953.56
2022-12-24T13:02:26.690Z,99940.47
2022-12-24T13:05:15.741Z,99938.72
2022-12-24T13:08:09.506Z,99939.59
2022-12-24T13:11:12.715Z,99951.84
2022-12-24T13:14:19.163Z,99950.91
2022-12-24T13:17:20.850Z,99949.16
2022-12-24T13:20:19.555Z,99946.53
2022-12-24T13:22:58.478Z,99943.03
2022-12-24T13:25:38.770Z,99947.41
2022-12-24T13:28:33.844Z,99943.88
2022-12-24T13:31:31.125Z,99949.97
2022-12-24T13:34:03.426Z,99955.22
2022-12-24T13:37:15.370Z,99952.66
2022-12-24T13:40:03.535Z,99951.06
2022-12-24T13:43:08.450Z,99944.97
2022-12-24T13:45:51.377Z,99952.84
2022-12-24T13:48:32.637Z,99957.16
2022-12-24T13:51:19.229Z,99971.09
2022-12-24T13:53:51.258Z,99963.19
2022-12-24T13:56:27.943Z,99962.22
2022-12-24T13:59:12.236Z,99966.53
2022-12-24T14:01:44.520Z,99963.03
2022-12-24T14:04:27.251Z,99968.28
2022-12-24T14:07:00.474Z,99972.63
2022-12-24T14:09:32.387Z,99960.31
2022-12-24T14:12:33.851Z,99972.47
2022-12-24T14:15:35.775Z,99982.88
2022-12-24T14:18:05.214Z,99984.53
2022-12-24T14:20:40.373Z,99977.44
2022-12-24T14:23:22.971Z,99981.75
2022-12-24T14:25:53.631Z,99983.50
2022-12-24T14:28:31.279Z,100000.06
2022-12-24T14:31:05.389Z,99997.38
2022-12-24T14:33:37.400Z,99996.38
2022-12-24T14:36:10.941Z,100004.16
2022-12-24T14:38:42.577Z,100009.34
2022-12-24T14:41:31.870Z,100012.81
2022-12-24T14:44:11.499Z,100017.13
2022-12-24T14:46:48.397Z,100024.06
2022-12-24T14:49:35.951Z,100012.69
2022-12-24T14:52:45.857Z,100026.63
2022-12-24T14:55:31.302Z,100021.38
2022-12-24T14:58:25.935Z,100017.84
2022-12-24T15:00:57.090Z,100018.72
2022-12-24T15:03:29.570Z,100030.94
2022-12-24T15:06:00.626Z,100036.13
2022-12-24T15:08:33.941Z,100029.94
2022-12-24T15:11:05.840Z,100033.44
2022-12-24T15:13:38.742Z,100041.25
2022-12-24T15:16:11.045Z,100044.66
2022-12-24T15:18:44.572Z,100062.88
2022-12-24T15:21:19.885Z,100058.34
2022-12-24T15:23:51.236Z,100064.25
2022-12-24T15:26:26.393Z,100068.44
2022-12-24T15:29:02.762Z,100062.94
2022-12-24T15:31:33.367Z,100074.97
2022-12-24T15:34:01.975Z,100075.69
2022-12-24T15:36:33.562Z,100081.63
2022-12-24T15:39:06.215Z,100090.13
2022-12-24T15:42:00.403Z,100095.16
2022-12-24T15:44:33.168Z,100094.84
2022-12-24T15:47:03.404Z,100085.91
2022-12-24T15:49:34.320Z,100090.06
2022-12-24T15:52:08.359Z,100094.16
2022-12-24T15:54:44.649Z,100098.28
2022-12-24T15:57:16.652Z,100103.22
2022-12-24T15:59:52.233Z,100107.34
2022-12-24T16:02:35.618Z,100105.31
2022-12-24T16:05:31.412Z,100110.31
2022-12-24T16:08:08.307Z,100112.69
2022-12-24T16:10:40.919Z,100113.31
2022-12-24T16:13:15.771Z,100111.34
2022-12-24T16:15:48.189Z,100104.16
2022-12-24T16:18:19.637Z,100102.16
2022-12-24T16:20:50.819Z,100098.53
2022-12-24T16:23:21.933Z,100093.13
2022-12-24T16:25:54.121Z,100097.25
2022-12-24T16:28:23.364Z,100100.53
2022-12-24T16:30:52.148Z,100101.28
2022-12-24T16:33:23.429Z,100095.78
2022-12-24T16:35:52.142Z,100095.63
2022-12-24T16:38:24.512Z,100105.03
2022-12-24T16:40:54.557Z,100104.84
2022-12-24T16:43:51.939Z,100103.78
2022-12-24T16:46:20.827Z,100100.06
2022-12-24T16:48:50.183Z,100106.84
2022-12-24T16:51:18.903Z,100112.75
2022-12-24T16:53:47.556Z,100121.28
2022-12-24T16:56:17.497Z,100120.19
2022-12-24T16:58:46.137Z,100120.91
2022-12-24T17:01:14.803Z,100122.53
2022-12-24T17:03:43.428Z,100120.72
2022-12-24T17:06:12.013Z,100122.28
2022-12-24T17:08:40.896Z,100129.13
2022-12-24T17:11:09.399Z,100134.25
2022-12-24T17:13:39.337Z,100133.19
2022-12-24T17:16:08.933Z,100125.25
2022-12-24T17:18:37.543Z,100133.78
2022-12-24T17:21:06.950Z,100141.50
2022-12-24T17:23:35.735Z,100142.28
2022-12-24T17:26:10.724Z,100133.44
2022-12-24T17:28:43.185Z,100128.09
2022-12-24T17:31:14.342Z,100133.22
2022-12-24T17:33:43.034Z,100127.94
2022-12-24T17:36:12.301Z,100132.16
2022-12-24T17:38:41.360Z,100132.91
2022-12-24T17:41:12.835Z,100140.66
2022-12-24T17:43:41.668Z,100147.53
2022-12-24T17:46:15.453Z,100141.44
2022-12-24T17:48:45.364Z,100144.03
2022-12-24T17:51:15.902Z,100140.56
2022-12-24T17:53:44.995Z,100134.50
2022-12-24T17:56:15.438Z,100131.91
2022-12-24T17:58:45.572Z,100128.34
2022-12-24T18:01:18.055Z,100132.66
2022-12-24T18:03:47.817Z,100142.22
2022-12-24T18:06:21.453Z,100142.97
2022-12-24T18:08:50.025Z,100161.22
2022-12-24T18:11:21.983Z,100161.97
2022-12-24T18:13:51.816Z,100160.22
2022-12-24T18:16:24.330Z,100163.63
2022-12-24T18:18:53.940Z,100164.47
2022-12-24T18:21:24.800Z,100159.13
2022-12-24T18:23:55.238Z,100149.63
2022-12-24T18:26:25.579Z,100145.19
2022-12-24T18:28:55.390Z,100137.28
2022-12-24T18:31:26.851Z,100142.38
2022-12-24T18:33:56.670Z,100144.91
2022-12-24T18:36:26.386Z,100150.00
2022-12-24T18:38:55.769Z,100148.09
2022-12-24T18:41:27.849Z,100151.53
2022-12-24T18:43:58.408Z,100143.66
2022-12-24T18:46:30.984Z,100144.44
2022-12-24T18:49:01.407Z,100147.88
2022-12-24T18:51:32.506Z,100149.53
2022-12-24T18:54:02.755Z,100155.59
2022-12-24T18:56:32.101Z,100152.13
2022-12-24T18:59:03.601Z,100155.59
2022-12-24T19:01:35.426Z,100152.19
2022-12-24T19:04:04.662Z,100146.16
2022-12-24T19:06:33.266Z,100133.13
2022-12-24T19:09:02.233Z,100135.72
2022-12-24T19:11:35.085Z,100137.47
2022-12-24T19:14:06.308Z,100141.00
2022-12-24T19:16:38.656Z,100136.69
2022-12-24T19:19:09.593Z,100138.44
2022-12-24T19:21:38.235Z,100145.50
2022-12-24T19:24:10.815Z,100139.47
2022-12-24T19:26:40.379Z,100144.72
2022-12-24T19:29:09.004Z,100146.56
2022-12-24T19:31:39.180Z,100150.97
2022-12-24T19:34:07.761Z,100150.19
2022-12-24T19:36:36.564Z,100151.16
2022-12-24T19:39:05.200Z,100154.69
2022-12-24T19:41:33.707Z,100154.88
2022-12-24T19:44:03.287Z,100155.81
2022-12-24T19:46:34.131Z,100153.31
2022-12-24T19:49:06.529Z,100157.78
2022-12-24T19:51:36.195Z,100149.19
2022-12-24T19:54:06.782Z,100148.41
2022-12-24T19:56:35.570Z,100141.50
2022-12-24T19:59:04.601Z,100152.03
2022-12-24T20:01:36.092Z,100148.66
2022-12-24T20:04:06.470Z,100150.44
2022-12-24T20:06:36.088Z,100142.69
2022-12-24T20:09:06.750Z,100141.84
2022-12-24T20:11:35.849Z,100156.66
2022-12-24T20:14:06.245Z,100153.22
2022-12-24T20:16:36.013Z,100153.28
2022-12-24T20:19:08.116Z,100157.72
2022-12-24T20:21:38.168Z,100156.13
2022-12-24T20:24:07.940Z,100160.56
2022-12-24T20:26:37.615Z,100164.13
2022-12-24T20:29:07.377Z,100162.44
2022-12-24T20:31:37.236Z,100173.00
2022-12-24T20:34:08.714Z,100163.41
2022-12-24T20:36:38.524Z,100173.88
2022-12-24T20:39:07.932Z,100172.19
2022-12-24T20:41:37.285Z,100176.56
2022-12-24T20:44:06.416Z,100166.13
2022-12-24T20:46:35.536Z,100161.88
2022-12-24T20:49:05.321Z,100164.47
2022-12-24T20:51:35.224Z,100174.06
2022-12-24T20:54:03.709Z,100173.34
2022-12-24T20:56:32.443Z,100183.88
2022-12-24T20:59:02.267Z,100182.34
2022-12-24T21:01:31.351Z,100189.44
2022-12-24T21:04:04.874Z,100179.19
2022-12-24T21:06:35.941Z,100181.94
2022-12-24T21:09:06.848Z,100186.50
2022-12-24T21:11:53.306Z,100202.25
2022-12-24T21:14:24.481Z,100200.69
2022-12-24T21:16:55.110Z,100207.81
2022-12-24T21:19:25.593Z,100208.78
2022-12-24T21:21:55.930Z,100210.69
2022-12-24T21:24:24.426Z,100196.94
2022-12-24T21:26:52.984Z,100197.03
2022-12-24T21:29:22.404Z,100199.75
2022-12-24T21:31:51.321Z,100192.00
2022-12-24T21:34:19.696Z,100189.47
2022-12-24T21:36:48.293Z,100194.81
2022-12-24T21:39:18.259Z,100193.16
2022-12-24T21:41:47.077Z,100202.81
2022-12-24T21:44:15.915Z,100202.03
2022-12-24T21:46:44.655Z,100195.13
2022-12-24T21:49:30.985Z,100199.56
2022-12-24T21:52:00.459Z,100178.75
2022-12-24T21:54:31.367Z,100179.66
2022-12-24T21:57:19.759Z,100188.44
2022-12-24T21:59:51.628Z,100181.56
2022-12-24T22:02:22.715Z,100165.06
2022-12-24T22:04:51.585Z,100159.00
2022-12-24T22:07:40.583Z,100160.78
2022-12-24T22:10:29.392Z,100159.00
2022-12-24T22:12:59.753Z,100158.16
2022-12-24T22:15:31.111Z,100165.13
2022-12-24T22:17:59.690Z,100162.50
2022-12-24T22:20:28.286Z,100152.06
2022-12-24T22:22:56.779Z,100148.56
2022-12-24T22:25:26.676Z,100137.28
2022-12-24T22:27:55.135Z,100134.66
2022-12-24T22:30:23.596Z,100133.84
2022-12-24T22:32:52.068Z,100134.66
2022-12-24T22:35:21.032Z,100137.28
2022-12-24T22:37:51.973Z,100136.34
2022-12-24T22:40:28.285Z,100125.91
2022-12-24T22:42:57.195Z,100121.59
2022-12-24T22:45:25.754Z,100121.53
2022-12-24T22:47:54.334Z,100117.16
2022-12-24T22:50:23.421Z,100124.13
2022-12-24T22:52:52.634Z,100120.69
2022-12-24T22:55:21.204Z,100112.81
2022-12-24T22:57:51.156Z,100124.13
2022-12-24T23:00:39.775Z,100111.94
2022-12-24T23:03:09.231Z,100113.69
2022-12-24T23:05:38.384Z,100117.16
2022-12-24T23:08:08.429Z,100111.03
2022-12-24T23:10:37.402Z,100111.94
2022-12-24T23:13:25.249Z,100102.31
2022-12-24T23:15:53.717Z,100105.75
2022-12-24T23:18:22.213Z,100099.69
2022-12-24T23:20:50.691Z,100097.06
2022-12-24T23:23:19.284Z,100099.69
2022-12-24T23:25:47.935Z,100107.53
2022-12-24T23:28:17.783Z,100089.25
2022-12-24T23:30:47.078Z,100101.50
2022-12-24T23:33:15.946Z,100101.50
2022-12-24T23:35:44.533Z,100098.03
2022-12-24T23:38:13.020Z,100115.44
2022-12-24T23:40:42.758Z,100122.47
2022-12-24T23:43:11.536Z,100112.03
2022-12-24T23:45:47.099Z,100113.78
2022-12-24T23:48:17.105Z,100111.16
2022-12-24T23:50:46.618Z,100121.59
2022-12-24T23:53:16.778Z,100125.06
2022-12-24T23:55:45.837Z,100136.34
2022-12-24T23:58:15.954Z,100138.03
